createdAt,value
2017-08-03T00:00:26.515Z,932.09
2017-08-03T00:00:54.708Z,932.11
2017-08-03T00:01:22.908Z,932.08
2017-08-03T00:01:51.101Z,932.07
2017-08-03T00:02:19.349Z,932.09
2017-08-03T00:02:47.450Z,932.08
2017-08-03T00:03:15.661Z,932.05
2017-08-03T00:03:43.928Z,932.06
2017-08-03T00:04:12.220Z,932.05
2017-08-03T00:04:40.409Z,932.06
2017-08-03T00:05:08.524Z,932.04
2017-08-03T00:05:36.593Z,932.06
2017-08-03T00:06:04.801Z,932.03
2017-08-03T00:06:33.005Z,932.06
2017-08-03T00:07:00.937Z,932.02
2017-08-03T00:07:29.048Z,932.03
2017-08-03T00:07:57.095Z,932.04
2017-08-03T00:08:25.250Z,932.03
2017-08-03T00:08:53.340Z,932.04
2017-08-03T00:09:21.640Z,932.05
2017-08-03T00:09:49.680Z,932
2017-08-03T00:10:17.843Z,932
2017-08-03T00:10:45.745Z,932.01
2017-08-03T00:11:13.960Z,932.04
2017-08-03T00:11:42.079Z,932.01
2017-08-03T00:12:10.279Z,931.97
2017-08-03T00:12:38.249Z,931.98
2017-08-03T00:13:06.341Z,931.98
2017-08-03T00:13:34.433Z,931.98
2017-08-03T00:14:02.421Z,932.02
2017-08-03T00:14:30.677Z,932
2017-08-03T00:14:58.792Z,931.99
2017-08-03T00:15:26.952Z,931.98
2017-08-03T00:15:55.123Z,932
2017-08-03T00:16:23.144Z,931.96
2017-08-03T00:16:51.317Z,931.98
2017-08-03T00:17:19.537Z,931.98
2017-08-03T00:17:47.568Z,931.99
2017-08-03T00:18:15.793Z,931.96
2017-08-03T00:18:43.944Z,931.95
2017-08-03T00:19:12.048Z,931.96
2017-08-03T00:19:40.367Z,931.96
2017-08-03T00:20:08.471Z,931.98
2017-08-03T00:20:36.675Z,931.95
2017-08-03T00:21:04.773Z,931.98
2017-08-03T00:21:32.962Z,931.98
2017-08-03T00:22:01.050Z,931.93
2017-08-03T00:22:29.148Z,931.94
2017-08-03T00:22:57.335Z,931.97
2017-08-03T00:23:25.510Z,931.98
2017-08-03T00:23:53.661Z,931.98
2017-08-03T00:24:21.830Z,931.98
2017-08-03T00:24:49.943Z,931.96
2017-08-03T00:25:18.071Z,931.97
2017-08-03T00:25:46.274Z,931.94
2017-08-03T00:26:14.217Z,931.94
2017-08-03T00:26:42.429Z,931.94
2017-08-03T00:27:10.610Z,931.95
2017-08-03T00:27:38.796Z,931.96
2017-08-03T00:28:06.969Z,931.91
2017-08-03T00:28:35.034Z,931.92
2017-08-03T00:29:03.274Z,931.94
2017-08-03T00:29:31.435Z,931.92
2017-08-03T00:29:59.639Z,931.92
2017-08-03T00:30:27.728Z,931.89
2017-08-03T00:30:55.719Z,931.9
2017-08-03T00:31:23.872Z,931.9
2017-08-03T00:31:51.933Z,931.85
2017-08-03T00:32:20.074Z,931.89
2017-08-03T00:32:48.189Z,931.88
2017-08-03T00:33:16.370Z,931.88
2017-08-03T00:33:44.447Z,931.86
2017-08-03T00:34:12.589Z,931.9
2017-08-03T00:34:40.935Z,931.87
2017-08-03T00:35:08.960Z,931.87
2017-08-03T00:35:37.083Z,931.91
2017-08-03T00:36:05.272Z,931.86
2017-08-03T00:36:33.369Z,931.85
2017-08-03T00:37:01.581Z,931.82
2017-08-03T00:37:29.780Z,931.87
2017-08-03T00:37:57.978Z,931.84
2017-08-03T00:38:26.129Z,931.85
2017-08-03T00:38:54.305Z,931.84
2017-08-03T00:39:22.393Z,931.86
2017-08-03T00:39:50.683Z,931.84
2017-08-03T00:40:18.917Z,931.86
2017-08-03T00:40:47.113Z,931.83
2017-08-03T00:41:15.244Z,931.86
2017-08-03T00:41:43.462Z,931.87
2017-08-03T00:42:11.661Z,931.84
2017-08-03T00:42:39.888Z,931.87
2017-08-03T00:43:07.866Z,931.82
2017-08-03T00:43:35.985Z,931.82
2017-08-03T00:44:04.099Z,931.82
2017-08-03T00:44:32.340Z,931.86
2017-08-03T00:45:00.765Z,931.84
2017-08-03T00:45:28.957Z,931.86
2017-08-03T00:45:57.090Z,931.88
2017-08-03T00:46:25.191Z,931.88
2017-08-03T00:46:53.391Z,931.87
2017-08-03T00:47:21.545Z,931.86
2017-08-03T00:47:49.670Z,931.87
2017-08-03T00:48:17.742Z,931.85
2017-08-03T00:48:45.819Z,931.86
2017-08-03T00:49:13.957Z,931.84
2017-08-03T00:49:42.232Z,931.86
2017-08-03T00:50:10.299Z,931.83
2017-08-03T00:50:38.369Z,931.82
2017-08-03T00:51:06.352Z,931.81
2017-08-03T00:51:34.373Z,931.81
2017-08-03T00:52:02.574Z,931.8
2017-08-03T00:52:30.736Z,931.82
2017-08-03T00:52:58.911Z,931.82
2017-08-03T00:53:27.139Z,931.81
2017-08-03T00:53:55.241Z,931.8
2017-08-03T00:54:23.410Z,931.76
2017-08-03T00:54:51.639Z,931.76
2017-08-03T00:55:19.796Z,931.76
2017-08-03T00:55:47.892Z,931.75
2017-08-03T00:56:16.057Z,931.76
2017-08-03T00:56:44.088Z,931.75
2017-08-03T00:57:12.187Z,931.76
2017-08-03T00:57:40.385Z,931.74
2017-08-03T00:58:08.486Z,931.75
2017-08-03T00:58:36.598Z,931.78
2017-08-03T00:59:04.648Z,931.79
2017-08-03T00:59:32.784Z,931.79
2017-08-03T01:00:00.985Z,931.78
2017-08-03T01:00:29.181Z,931.82
2017-08-03T01:00:57.378Z,931.77
2017-08-03T01:01:25.583Z,931.79
2017-08-03T01:01:53.713Z,931.82
2017-08-03T01:02:21.808Z,931.8
2017-08-03T01:02:50.024Z,931.78
2017-08-03T01:03:18.156Z,931.81
2017-08-03T01:03:46.162Z,931.81
2017-08-03T01:04:14.336Z,931.82
2017-08-03T01:04:42.536Z,931.76
2017-08-03T01:05:10.767Z,931.82
2017-08-03T01:05:38.965Z,931.81
2017-08-03T01:06:07.215Z,931.79
2017-08-03T01:06:35.397Z,931.83
2017-08-03T01:07:03.498Z,931.82
2017-08-03T01:07:31.703Z,931.8
2017-08-03T01:07:59.891Z,931.83
2017-08-03T01:08:28.057Z,931.84
2017-08-03T01:08:55.905Z,931.85
2017-08-03T01:09:23.974Z,931.84
2017-08-03T01:09:52.170Z,931.85
2017-08-03T01:10:20.446Z,931.84
2017-08-03T01:10:48.558Z,931.84
2017-08-03T01:11:16.768Z,931.82
2017-08-03T01:11:44.938Z,931.83
2017-08-03T01:12:13.014Z,931.84
2017-08-03T01:12:41.238Z,931.83
2017-08-03T01:13:09.438Z,931.81
2017-08-03T01:13:37.655Z,931.83
2017-08-03T01:14:05.785Z,931.81
2017-08-03T01:14:33.862Z,931.77
2017-08-03T01:15:02.056Z,931.82
2017-08-03T01:15:30.152Z,931.82
2017-08-03T01:15:58.352Z,931.8
2017-08-03T01:16:26.574Z,931.78
2017-08-03T01:16:54.683Z,931.81
2017-08-03T01:17:22.779Z,931.77
2017-08-03T01:17:50.874Z,931.79
2017-08-03T01:18:18.994Z,931.76
2017-08-03T01:18:47.198Z,931.76
2017-08-03T01:19:15.434Z,931.75
2017-08-03T01:19:43.588Z,931.74
2017-08-03T01:20:11.839Z,931.73
2017-08-03T01:20:39.828Z,931.73
2017-08-03T01:21:08.073Z,931.78
2017-08-03T01:21:36.107Z,931.76
2017-08-03T01:22:04.333Z,931.74
2017-08-03T01:22:32.537Z,931.72
2017-08-03T01:23:00.664Z,931.73
2017-08-03T01:23:28.855Z,931.73
2017-08-03T01:23:57.018Z,931.73
2017-08-03T01:24:25.108Z,931.7
2017-08-03T01:24:53.214Z,931.71
2017-08-03T01:25:21.560Z,931.71
2017-08-03T01:25:49.783Z,931.71
2017-08-03T01:26:18.001Z,931.69
2017-08-03T01:26:46.195Z,931.72
2017-08-03T01:27:14.390Z,931.68
2017-08-03T01:27:42.418Z,931.68
2017-08-03T01:28:10.626Z,931.7
2017-08-03T01:28:38.804Z,931.69
2017-08-03T01:29:06.984Z,931.69
2017-08-03T01:29:35.158Z,931.69
2017-08-03T01:30:03.254Z,931.73
2017-08-03T01:30:31.596Z,931.68
2017-08-03T01:30:59.829Z,931.68
2017-08-03T01:31:27.965Z,931.68
2017-08-03T01:31:56.085Z,931.66
2017-08-03T01:32:24.251Z,931.69
2017-08-03T01:32:52.440Z,931.65
2017-08-03T01:33:20.496Z,931.64
2017-08-03T01:33:48.705Z,931.62
2017-08-03T01:34:16.818Z,931.62
2017-08-03T01:34:45.055Z,931.63
2017-08-03T01:35:13.105Z,931.62
2017-08-03T01:35:41.285Z,931.6
2017-08-03T01:36:09.335Z,931.62
2017-08-03T01:36:37.493Z,931.6
2017-08-03T01:37:05.700Z,931.61
2017-08-03T01:37:33.877Z,931.58
2017-08-03T01:38:01.938Z,931.61
2017-08-03T01:38:30.149Z,931.6
2017-08-03T01:38:58.242Z,931.58
2017-08-03T01:39:26.483Z,931.6
2017-08-03T01:39:54.690Z,931.58
2017-08-03T01:40:22.774Z,931.56
2017-08-03T01:40:51.090Z,931.58
2017-08-03T01:41:19.176Z,931.55
2017-08-03T01:41:47.342Z,931.55
2017-08-03T01:42:15.430Z,931.58
2017-08-03T01:42:43.655Z,931.53
2017-08-03T01:43:11.743Z,931.56
2017-08-03T01:43:39.751Z,931.54
2017-08-03T01:44:07.877Z,931.55
2017-08-03T01:44:35.819Z,931.56
2017-08-03T01:45:03.709Z,931.52
2017-08-03T01:45:31.937Z,931.49
2017-08-03T01:45:59.911Z,931.5
2017-08-03T01:46:27.998Z,931.41
2017-08-03T01:46:56.043Z,931.42
2017-08-03T01:47:24.226Z,931.42
2017-08-03T01:47:52.425Z,931.41
2017-08-03T01:48:20.359Z,931.4
2017-08-03T01:48:48.544Z,931.41
2017-08-03T01:49:16.748Z,931.4
2017-08-03T01:49:44.944Z,931.43
2017-08-03T01:50:13.173Z,931.43
2017-08-03T01:50:41.438Z,931.39
2017-08-03T01:51:09.673Z,931.43
2017-08-03T01:51:37.791Z,931.39
2017-08-03T01:52:05.866Z,931.41
2017-08-03T01:52:34.058Z,931.44
2017-08-03T01:53:02.086Z,931.41
2017-08-03T01:53:30.017Z,931.42
2017-08-03T01:53:58.186Z,931.43
2017-08-03T01:54:26.211Z,931.43
2017-08-03T01:54:54.340Z,931.42
2017-08-03T01:55:22.326Z,931.43
2017-08-03T01:55:50.553Z,931.42
2017-08-03T01:56:18.669Z,931.45
2017-08-03T01:56:46.801Z,931.41
2017-08-03T01:57:14.804Z,931.43
2017-08-03T01:57:42.989Z,931.46
2017-08-03T01:58:11.102Z,931.44
2017-08-03T01:58:39.222Z,931.42
2017-08-03T01:59:07.380Z,931.41
2017-08-03T01:59:35.489Z,931.44
2017-08-03T02:00:03.606Z,931.44
2017-08-03T02:00:31.835Z,931.47
2017-08-03T02:01:00.136Z,931.47
2017-08-03T02:01:28.037Z,931.44
2017-08-03T02:01:56.282Z,931.49
2017-08-03T02:02:24.319Z,931.45
2017-08-03T02:02:52.528Z,931.46
2017-08-03T02:03:20.737Z,931.41
2017-08-03T02:03:48.848Z,931.46
2017-08-03T02:04:16.835Z,931.44
2017-08-03T02:04:44.950Z,931.49
2017-08-03T02:05:13.183Z,931.44
2017-08-03T02:05:41.295Z,931.43
2017-08-03T02:06:09.500Z,931.44
2017-08-03T02:06:37.512Z,931.39
2017-08-03T02:07:05.630Z,931.37
2017-08-03T02:07:33.884Z,931.38
2017-08-03T02:08:01.982Z,931.39
2017-08-03T02:08:30.160Z,931.41
2017-08-03T02:08:58.258Z,931.44
2017-08-03T02:09:26.430Z,931.39
2017-08-03T02:09:54.622Z,931.45
2017-08-03T02:10:22.752Z,931.42
2017-08-03T02:10:50.926Z,931.42
2017-08-03T02:11:19.091Z,931.44
2017-08-03T02:11:47.144Z,931.46
2017-08-03T02:12:15.269Z,931.45
2017-08-03T02:12:43.450Z,931.44
2017-08-03T02:13:11.564Z,931.44
2017-08-03T02:13:39.805Z,931.42
2017-08-03T02:14:07.763Z,931.42
2017-08-03T02:14:35.999Z,931.44
2017-08-03T02:15:04.067Z,931.44
2017-08-03T02:15:32.262Z,931.42
2017-08-03T02:16:00.488Z,931.43
2017-08-03T02:16:28.506Z,931.45
2017-08-03T02:16:56.506Z,931.43
2017-08-03T02:17:24.706Z,931.42
2017-08-03T02:17:52.735Z,931.44
2017-08-03T02:18:20.946Z,931.45
2017-08-03T02:18:49.067Z,931.43
2017-08-03T02:19:17.256Z,931.45
2017-08-03T02:19:45.442Z,931.45
2017-08-03T02:20:13.466Z,931.42
2017-08-03T02:20:41.676Z,931.4
2017-08-03T02:21:09.988Z,931.41
2017-08-03T02:21:38.193Z,931.42
2017-08-03T02:22:06.399Z,931.39
2017-08-03T02:22:34.476Z,931.38
2017-08-03T02:23:02.605Z,931.35
2017-08-03T02:23:30.722Z,931.37
2017-08-03T02:23:58.882Z,931.39
2017-08-03T02:24:27.062Z,931.38
2017-08-03T02:24:55.276Z,931.37
2017-08-03T02:25:23.456Z,931.36
2017-08-03T02:25:51.667Z,931.36
2017-08-03T02:26:19.807Z,931.35
2017-08-03T02:26:48.000Z,931.34
2017-08-03T02:27:16.233Z,931.36
2017-08-03T02:27:44.229Z,931.36
2017-08-03T02:28:12.229Z,931.38
2017-08-03T02:28:40.238Z,931.35
2017-08-03T02:29:08.460Z,931.34
2017-08-03T02:29:36.659Z,931.37
2017-08-03T02:30:04.870Z,931.37
2017-08-03T02:30:33.050Z,931.34
2017-08-03T02:31:01.313Z,931.35
2017-08-03T02:31:29.527Z,931.35
2017-08-03T02:31:57.736Z,931.32
2017-08-03T02:32:25.914Z,931.29
2017-08-03T02:32:54.118Z,931.32
2017-08-03T02:33:22.110Z,931.33
2017-08-03T02:33:50.260Z,931.3
2017-08-03T02:34:18.377Z,931.31
2017-08-03T02:34:46.622Z,931.32
2017-08-03T02:35:14.834Z,931.32
2017-08-03T02:35:43.038Z,931.33
2017-08-03T02:36:11.364Z,931.35
2017-08-03T02:36:39.567Z,931.3
2017-08-03T02:37:07.799Z,931.33
2017-08-03T02:37:35.837Z,931.31
2017-08-03T02:38:03.893Z,931.32
2017-08-03T02:38:31.910Z,931.33
2017-08-03T02:39:00.124Z,931.29
2017-08-03T02:39:28.307Z,931.3
2017-08-03T02:39:56.480Z,931.32
2017-08-03T02:40:24.643Z,931.3
2017-08-03T02:40:52.864Z,931.27
2017-08-03T02:41:21.099Z,931.28
2017-08-03T02:41:49.293Z,931.27
2017-08-03T02:42:17.429Z,931.26
2017-08-03T02:42:45.580Z,931.26
2017-08-03T02:43:13.796Z,931.24
2017-08-03T02:43:41.832Z,931.22
2017-08-03T02:44:09.991Z,931.27
2017-08-03T02:44:38.220Z,931.25
2017-08-03T02:45:06.403Z,931.21
2017-08-03T02:45:34.513Z,931.18
2017-08-03T02:46:02.708Z,931.18
2017-08-03T02:46:30.885Z,931.16
2017-08-03T02:46:59.077Z,931.15
2017-08-03T02:47:27.173Z,931.15
2017-08-03T02:47:55.306Z,931.19
2017-08-03T02:48:23.483Z,931.14
2017-08-03T02:48:51.575Z,931.15
2017-08-03T02:49:19.762Z,931.13
2017-08-03T02:49:47.941Z,931.11
2017-08-03T02:50:16.054Z,931.12
2017-08-03T02:50:44.246Z,931.08
2017-08-03T02:51:12.385Z,931.11
2017-08-03T02:51:40.608Z,931.11
2017-08-03T02:52:08.636Z,931.09
2017-08-03T02:52:36.694Z,931.07
2017-08-03T02:53:04.886Z,931.08
2017-08-03T02:53:32.995Z,931.1
2017-08-03T02:54:01.189Z,931.11
2017-08-03T02:54:29.278Z,931.1
2017-08-03T02:54:57.435Z,931.08
2017-08-03T02:55:25.482Z,931.08
2017-08-03T02:55:53.716Z,931.05
2017-08-03T02:56:22.005Z,931.03
2017-08-03T02:56:50.174Z,931.05
2017-08-03T02:57:18.199Z,931.05
2017-08-03T02:57:46.291Z,931.03
2017-08-03T02:58:14.377Z,931.06
2017-08-03T02:58:42.522Z,931
2017-08-03T02:59:10.661Z,931.03
2017-08-03T02:59:38.750Z,931.02
2017-08-03T03:00:06.834Z,931.01
2017-08-03T03:00:35.027Z,931
2017-08-03T03:01:03.207Z,930.98
2017-08-03T03:01:31.537Z,930.99
2017-08-03T03:01:59.771Z,931.03
2017-08-03T03:02:27.780Z,930.99
2017-08-03T03:02:55.968Z,930.99
2017-08-03T03:03:24.165Z,930.99
2017-08-03T03:03:52.385Z,930.96
2017-08-03T03:04:20.572Z,931
2017-08-03T03:04:48.801Z,930.98
2017-08-03T03:05:17.030Z,930.99
2017-08-03T03:05:45.248Z,930.95
2017-08-03T03:06:13.454Z,930.97
2017-08-03T03:06:41.639Z,930.92
2017-08-03T03:07:09.833Z,930.93
2017-08-03T03:07:37.943Z,930.91
2017-08-03T03:08:06.137Z,930.89
2017-08-03T03:08:34.325Z,930.91
2017-08-03T03:09:02.439Z,930.87
2017-08-03T03:09:30.631Z,930.89
2017-08-03T03:09:58.802Z,930.88
2017-08-03T03:10:26.946Z,930.87
2017-08-03T03:10:55.098Z,930.88
2017-08-03T03:11:23.352Z,930.9
2017-08-03T03:11:51.540Z,930.87
2017-08-03T03:12:19.754Z,930.85
2017-08-03T03:12:47.944Z,930.84
2017-08-03T03:13:16.047Z,930.85
2017-08-03T03:13:44.166Z,930.81
2017-08-03T03:14:12.289Z,930.8
2017-08-03T03:14:40.414Z,930.78
2017-08-03T03:15:08.512Z,930.81
2017-08-03T03:15:36.612Z,930.74
2017-08-03T03:16:04.645Z,930.77
2017-08-03T03:16:32.854Z,930.75
2017-08-03T03:17:00.971Z,930.76
2017-08-03T03:17:29.150Z,930.75
2017-08-03T03:17:57.308Z,930.74
2017-08-03T03:18:25.491Z,930.73
2017-08-03T03:18:53.703Z,930.73
2017-08-03T03:19:21.959Z,930.72
2017-08-03T03:19:50.170Z,930.7
2017-08-03T03:20:18.354Z,930.71
2017-08-03T03:20:46.528Z,930.72
2017-08-03T03:21:14.649Z,930.73
2017-08-03T03:21:42.939Z,930.74
2017-08-03T03:22:11.024Z,930.74
2017-08-03T03:22:39.211Z,930.72
2017-08-03T03:23:07.203Z,930.7
2017-08-03T03:23:35.425Z,930.69
2017-08-03T03:24:03.449Z,930.72
2017-08-03T03:24:31.583Z,930.69
2017-08-03T03:24:59.723Z,930.73
2017-08-03T03:25:27.929Z,930.7
2017-08-03T03:25:56.058Z,930.66
2017-08-03T03:26:24.290Z,930.66
2017-08-03T03:26:52.417Z,930.6
2017-08-03T03:27:20.685Z,930.63
2017-08-03T03:27:49.017Z,930.66
2017-08-03T03:28:17.299Z,930.65
2017-08-03T03:28:45.479Z,930.65
2017-08-03T03:29:13.685Z,930.61
2017-08-03T03:29:41.885Z,930.59
2017-08-03T03:30:09.997Z,930.6
2017-08-03T03:30:38.187Z,930.61
2017-08-03T03:31:06.270Z,930.6
2017-08-03T03:31:34.450Z,930.56
2017-08-03T03:32:02.534Z,930.6
2017-08-03T03:32:30.719Z,930.55
2017-08-03T03:32:58.954Z,930.53
2017-08-03T03:33:27.037Z,930.51
2017-08-03T03:33:55.262Z,930.52
2017-08-03T03:34:23.390Z,930.53
2017-08-03T03:34:51.494Z,930.52
2017-08-03T03:35:19.673Z,930.49
2017-08-03T03:35:47.673Z,930.51
2017-08-03T03:36:15.909Z,930.54
2017-08-03T03:36:44.030Z,930.52
2017-08-03T03:37:12.162Z,930.52
2017-08-03T03:37:40.276Z,930.49
2017-08-03T03:38:08.458Z,930.48
2017-08-03T03:38:36.539Z,930.46
2017-08-03T03:39:04.652Z,930.46
2017-08-03T03:39:32.783Z,930.45
2017-08-03T03:40:00.916Z,930.43
2017-08-03T03:40:28.947Z,930.46
2017-08-03T03:40:57.147Z,930.43
2017-08-03T03:41:25.359Z,930.43
2017-08-03T03:41:53.657Z,930.41
2017-08-03T03:42:21.872Z,930.44
2017-08-03T03:42:50.054Z,930.41
2017-08-03T03:43:18.123Z,930.39
2017-08-03T03:43:46.336Z,930.43
2017-08-03T03:44:14.486Z,930.38
2017-08-03T03:44:42.553Z,930.43
2017-08-03T03:45:10.654Z,930.41
2017-08-03T03:45:38.652Z,930.44
2017-08-03T03:46:06.801Z,930.38
2017-08-03T03:46:34.811Z,930.39
2017-08-03T03:47:02.923Z,930.44
2017-08-03T03:47:31.095Z,930.38
2017-08-03T03:47:59.279Z,930.42
2017-08-03T03:48:27.319Z,930.39
2017-08-03T03:48:55.420Z,930.43
2017-08-03T03:49:23.530Z,930.39
2017-08-03T03:49:51.647Z,930.36
2017-08-03T03:50:19.797Z,930.41
2017-08-03T03:50:47.980Z,930.38
2017-08-03T03:51:16.073Z,930.37
2017-08-03T03:51:44.389Z,930.39
2017-08-03T03:52:12.506Z,930.41
2017-08-03T03:52:40.677Z,930.37
2017-08-03T03:53:08.992Z,930.32
2017-08-03T03:53:37.091Z,930.32
2017-08-03T03:54:05.226Z,930.34
2017-08-03T03:54:33.342Z,930.34
2017-08-03T03:55:01.479Z,930.34
2017-08-03T03:55:29.668Z,930.3
2017-08-03T03:55:57.660Z,930.29
2017-08-03T03:56:25.778Z,930.28
2017-08-03T03:56:53.950Z,930.26
2017-08-03T03:57:22.035Z,930.28
2017-08-03T03:57:50.198Z,930.26
2017-08-03T03:58:18.400Z,930.23
2017-08-03T03:58:46.502Z,930.21
2017-08-03T03:59:14.693Z,930.26
2017-08-03T03:59:42.908Z,930.24
2017-08-03T04:00:11.021Z,930.21
2017-08-03T04:00:39.104Z,930.19
2017-08-03T04:01:07.318Z,930.21
2017-08-03T04:01:35.494Z,930.19
2017-08-03T04:02:03.939Z,930.19
2017-08-03T04:02:32.065Z,930.18
2017-08-03T04:03:00.236Z,930.17
2017-08-03T04:03:28.436Z,930.16
2017-08-03T04:03:56.539Z,930.16
2017-08-03T04:04:24.792Z,930.12
2017-08-03T04:04:52.910Z,930.11
2017-08-03T04:05:21.004Z,930.1
2017-08-03T04:05:49.052Z,930.14
2017-08-03T04:06:17.252Z,930.08
2017-08-03T04:06:45.444Z,930.08
2017-08-03T04:07:13.760Z,930.08
2017-08-03T04:07:41.866Z,930.09
2017-08-03T04:08:10.044Z,930.06
2017-08-03T04:08:38.285Z,930.07
2017-08-03T04:09:06.505Z,930.07
2017-08-03T04:09:34.764Z,930.03
2017-08-03T04:10:02.859Z,930.03
2017-08-03T04:10:30.892Z,930.03
2017-08-03T04:10:59.081Z,930.05
2017-08-03T04:11:27.134Z,930
2017-08-03T04:11:55.377Z,930.02
2017-08-03T04:12:23.668Z,930.03
2017-08-03T04:12:51.809Z,930
2017-08-03T04:13:19.889Z,929.98
2017-08-03T04:13:48.070Z,930
2017-08-03T04:14:16.235Z,929.95
2017-08-03T04:14:44.323Z,929.93
2017-08-03T04:15:12.510Z,929.94
2017-08-03T04:15:40.739Z,929.92
2017-08-03T04:16:08.934Z,929.93
2017-08-03T04:16:37.040Z,929.91
2017-08-03T04:17:05.241Z,929.93
2017-08-03T04:17:33.398Z,929.91
2017-08-03T04:18:01.509Z,929.89
2017-08-03T04:18:29.759Z,929.87
2017-08-03T04:18:57.878Z,929.87
2017-08-03T04:19:26.001Z,929.86
2017-08-03T04:19:54.201Z,929.86
2017-08-03T04:20:22.414Z,929.86
2017-08-03T04:20:50.628Z,929.82
2017-08-03T04:21:18.800Z,929.74
2017-08-03T04:21:47.035Z,929.81
2017-08-03T04:22:15.371Z,929.81
2017-08-03T04:22:43.558Z,929.79
2017-08-03T04:23:11.784Z,929.77
2017-08-03T04:23:39.988Z,929.8
2017-08-03T04:24:08.236Z,929.79
2017-08-03T04:24:36.342Z,929.81
2017-08-03T04:25:04.512Z,929.84
2017-08-03T04:25:32.710Z,929.84
2017-08-03T04:26:00.828Z,929.8
2017-08-03T04:26:28.999Z,929.79
2017-08-03T04:26:57.214Z,929.78
2017-08-03T04:27:25.526Z,929.79
2017-08-03T04:27:53.648Z,929.81
2017-08-03T04:28:21.720Z,929.78
2017-08-03T04:28:49.937Z,929.81
2017-08-03T04:29:18.134Z,929.8
2017-08-03T04:29:46.273Z,929.79
2017-08-03T04:30:14.417Z,929.8
2017-08-03T04:30:42.518Z,929.77
2017-08-03T04:31:10.617Z,929.75
2017-08-03T04:31:38.699Z,929.79
2017-08-03T04:32:07.001Z,929.76
2017-08-03T04:32:35.094Z,929.75
2017-08-03T04:33:03.158Z,929.76
2017-08-03T04:33:31.192Z,929.78
2017-08-03T04:33:59.309Z,929.71
2017-08-03T04:34:27.342Z,929.72
2017-08-03T04:34:55.331Z,929.71
2017-08-03T04:35:23.517Z,929.68
2017-08-03T04:35:51.647Z,929.7
2017-08-03T04:36:19.697Z,929.7
2017-08-03T04:36:47.904Z,929.7
2017-08-03T04:37:16.296Z,929.67
2017-08-03T04:37:44.386Z,929.63
2017-08-03T04:38:12.592Z,929.63
2017-08-03T04:38:40.675Z,929.66
2017-08-03T04:39:08.724Z,929.64
2017-08-03T04:39:36.840Z,929.63
2017-08-03T04:40:05.029Z,929.61
2017-08-03T04:40:33.112Z,929.62
2017-08-03T04:41:01.277Z,929.63
2017-08-03T04:41:29.515Z,929.6
2017-08-03T04:41:57.724Z,929.6
2017-08-03T04:42:25.911Z,929.56
2017-08-03T04:42:53.989Z,929.52
2017-08-03T04:43:22.065Z,929.58
2017-08-03T04:43:50.207Z,929.53
2017-08-03T04:44:18.337Z,929.57
2017-08-03T04:44:46.415Z,929.56
2017-08-03T04:45:14.461Z,929.51
2017-08-03T04:45:42.696Z,929.54
2017-08-03T04:46:10.879Z,929.5
2017-08-03T04:46:38.990Z,929.54
2017-08-03T04:47:07.212Z,929.57
2017-08-03T04:47:35.464Z,929.52
2017-08-03T04:48:03.480Z,929.54
2017-08-03T04:48:31.635Z,929.53
2017-08-03T04:48:59.750Z,929.53
2017-08-03T04:49:27.988Z,929.54
2017-08-03T04:49:56.199Z,929.51
2017-08-03T04:50:24.388Z,929.54
2017-08-03T04:50:52.569Z,929.46
2017-08-03T04:51:20.712Z,929.43
2017-08-03T04:51:48.918Z,929.43
2017-08-03T04:52:17.168Z,929.42
2017-08-03T04:52:45.380Z,929.45
2017-08-03T04:53:13.337Z,929.42
2017-08-03T04:53:41.573Z,929.43
2017-08-03T04:54:09.686Z,929.45
2017-08-03T04:54:37.700Z,929.42
2017-08-03T04:55:05.707Z,929.44
2017-08-03T04:55:33.798Z,929.45
2017-08-03T04:56:01.969Z,929.45
2017-08-03T04:56:30.174Z,929.47
2017-08-03T04:56:58.376Z,929.46
2017-08-03T04:57:26.568Z,929.46
2017-08-03T04:57:54.712Z,929.41
2017-08-03T04:58:22.843Z,929.44
2017-08-03T04:58:50.997Z,929.42
2017-08-03T04:59:19.160Z,929.44
2017-08-03T04:59:47.374Z,929.4
2017-08-03T05:00:15.497Z,929.42
2017-08-03T05:00:43.672Z,929.43
2017-08-03T05:01:11.873Z,929.45
2017-08-03T05:01:40.045Z,929.44
2017-08-03T05:02:07.987Z,929.44
2017-08-03T05:02:36.269Z,929.43
2017-08-03T05:03:04.448Z,929.44
2017-08-03T05:03:32.588Z,929.43
2017-08-03T05:04:00.798Z,929.42
2017-08-03T05:04:28.955Z,929.42
2017-08-03T05:04:57.106Z,929.42
2017-08-03T05:05:25.170Z,929.43
2017-08-03T05:05:53.391Z,929.41
2017-08-03T05:06:21.630Z,929.39
2017-08-03T05:06:49.798Z,929.41
2017-08-03T05:07:17.858Z,929.41
2017-08-03T05:07:45.946Z,929.44
2017-08-03T05:08:14.048Z,929.4
2017-08-03T05:08:42.149Z,929.41
2017-08-03T05:09:10.319Z,929.4
2017-08-03T05:09:38.414Z,929.39
2017-08-03T05:10:06.597Z,929.41
2017-08-03T05:10:34.645Z,929.42
2017-08-03T05:11:02.839Z,929.38
2017-08-03T05:11:30.957Z,929.39
2017-08-03T05:11:59.099Z,929.38
2017-08-03T05:12:27.284Z,929.39
2017-08-03T05:12:55.510Z,929.38
2017-08-03T05:13:23.510Z,929.36
2017-08-03T05:13:51.576Z,929.34
2017-08-03T05:14:19.835Z,929.34
2017-08-03T05:14:48.060Z,929.33
2017-08-03T05:15:16.239Z,929.28
2017-08-03T05:15:44.434Z,929.26
2017-08-03T05:16:12.583Z,929.24
2017-08-03T05:16:40.781Z,929.25
2017-08-03T05:17:08.846Z,929.28
2017-08-03T05:17:37.056Z,929.25
2017-08-03T05:18:05.343Z,929.27
2017-08-03T05:18:33.377Z,929.26
2017-08-03T05:19:01.475Z,929.26
2017-08-03T05:19:29.597Z,929.27
2017-08-03T05:19:57.765Z,929.21
2017-08-03T05:20:25.831Z,929.27
2017-08-03T05:20:53.967Z,929.23
2017-08-03T05:21:22.096Z,929.26
2017-08-03T05:21:50.115Z,929.22
2017-08-03T05:22:18.273Z,929.17
2017-08-03T05:22:46.339Z,929.21
2017-08-03T05:23:14.435Z,929.22
2017-08-03T05:23:42.612Z,929.22
2017-08-03T05:24:10.816Z,929.19
2017-08-03T05:24:38.984Z,929.19
2017-08-03T05:25:07.099Z,929.18
2017-08-03T05:25:35.194Z,929.15
2017-08-03T05:26:03.075Z,929.14
2017-08-03T05:26:31.287Z,929.17
2017-08-03T05:26:59.398Z,929.12
2017-08-03T05:27:27.588Z,929.14
2017-08-03T05:27:55.743Z,929.14
2017-08-03T05:28:23.944Z,929.13
2017-08-03T05:28:51.886Z,929.14
2017-08-03T05:29:19.979Z,929.15
2017-08-03T05:29:48.159Z,929.16
2017-08-03T05:30:16.381Z,929.15
2017-08-03T05:30:44.492Z,929.11
2017-08-03T05:31:12.682Z,929.11
2017-08-03T05:31:40.825Z,929.12
2017-08-03T05:32:08.938Z,929.1
2017-08-03T05:32:37.171Z,929.1
2017-08-03T05:33:05.451Z,929.07
2017-08-03T05:33:33.669Z,929.11
2017-08-03T05:34:01.880Z,929.09
2017-08-03T05:34:29.941Z,929.08
2017-08-03T05:34:58.073Z,929.09
2017-08-03T05:35:26.232Z,929.12
2017-08-03T05:35:54.445Z,929.11
2017-08-03T05:36:22.640Z,929.06
2017-08-03T05:36:50.828Z,929.08
2017-08-03T05:37:18.982Z,929.08
2017-08-03T05:37:47.089Z,929.1
2017-08-03T05:38:15.546Z,929.04
2017-08-03T05:38:43.732Z,929.08
2017-08-03T05:39:11.981Z,929.02
2017-08-03T05:39:40.034Z,929.08
2017-08-03T05:40:08.224Z,929.04
2017-08-03T05:40:36.311Z,929.04
2017-08-03T05:41:04.323Z,929.02
2017-08-03T05:41:32.534Z,929.02
2017-08-03T05:42:00.622Z,929.01
2017-08-03T05:42:28.841Z,929.03
2017-08-03T05:42:57.061Z,929.01
2017-08-03T05:43:25.283Z,928.99
2017-08-03T05:43:53.202Z,929.02
2017-08-03T05:44:21.260Z,929.01
2017-08-03T05:44:49.428Z,929.04
2017-08-03T05:45:17.369Z,929.02
2017-08-03T05:45:45.574Z,929
2017-08-03T05:46:13.774Z,928.98
2017-08-03T05:46:41.904Z,928.98
2017-08-03T05:47:10.166Z,928.95
2017-08-03T05:47:38.391Z,928.93
2017-08-03T05:48:06.672Z,928.9
2017-08-03T05:48:34.835Z,928.85
2017-08-03T05:49:02.744Z,928.83
2017-08-03T05:49:31.009Z,928.81
2017-08-03T05:49:59.203Z,928.73
2017-08-03T05:50:27.284Z,928.75
2017-08-03T05:50:55.506Z,928.7
2017-08-03T05:51:23.616Z,928.65
2017-08-03T05:51:51.706Z,928.64
2017-08-03T05:52:19.835Z,928.6
2017-08-03T05:52:47.943Z,928.59